sensor_id;sensor_type;location;lat;lon;timestamp;temperature;humidity
5639;DHT22;2841;44.526;11.360;2022-12-08T00:01:07;5.40;99.90
5639;DHT22;2841;44.526;11.360;2022-12-08T00:03:34;5.40;99.90
5639;DHT22;2841;44.526;11.360;2022-12-08T00:06:03;5.30;99.90
5639;DHT22;2841;44.526;11.360;2022-12-08T00:08:47;5.40;99.90
5639;DHT22;2841;44.526;11.360;2022-12-08T00:11:32;5.30;99.90
5639;DHT22;2841;44.526;11.360;2022-12-08T00:13:59;5.30;99.90
5639;DHT22;2841;44.526;11.360;2022-12-08T00:16:27;5.40;99.90
5639;DHT22;2841;44.526;11.360;2022-12-08T00:18:54;5.30;99.90
5639;DHT22;2841;44.526;11.360;2022-12-08T00:21:21;5.30;99.90
5639;DHT22;2841;44.526;11.360;2022-12-08T00:23:48;5.30;99.90
5639;DHT22;2841;44.526;11.360;2022-12-08T00:26:15;5.30;99.90
5639;DHT22;2841;44.526;11.360;2022-12-08T00:28:42;5.30;99.90
5639;DHT22;2841;44.526;11.360;2022-12-08T00:31:10;5.20;99.90
5639;DHT22;2841;44.526;11.360;2022-12-08T00:33:39;5.20;99.90
5639;DHT22;2841;44.526;11.360;2022-12-08T00:36:07;5.30;99.90
5639;DHT22;2841;44.526;11.360;2022-12-08T00:38:35;5.30;99.90
5639;DHT22;2841;44.526;11.360;2022-12-08T00:41:02;5.40;99.90
5639;DHT22;2841;44.526;11.360;2022-12-08T00:43:29;5.30;99.90
5639;DHT22;2841;44.526;11.360;2022-12-08T00:45:56;5.30;99.90
5639;DHT22;2841;44.526;11.360;2022-12-08T00:48:23;5.30;99.90
5639;DHT22;2841;44.526;11.360;2022-12-08T00:50:51;5.20;99.90
5639;DHT22;2841;44.526;11.360;2022-12-08T00:53:18;5.20;99.90
5639;DHT22;2841;44.526;11.360;2022-12-08T00:55:45;5.20;99.90
5639;DHT22;2841;44.526;11.360;2022-12-08T00:58:12;5.30;99.90
5639;DHT22;2841;44.526;11.360;2022-12-08T01:00:40;5.30;99.90
5639;DHT22;2841;44.526;11.360;2022-12-08T01:03:08;5.30;99.90
5639;DHT22;2841;44.526;11.360;2022-12-08T01:05:35;5.20;99.90
5639;DHT22;2841;44.526;11.360;2022-12-08T01:08:05;5.10;99.90
5639;DHT22;2841;44.526;11.360;2022-12-08T01:10:34;5.10;99.90
5639;DHT22;2841;44.526;11.360;2022-12-08T01:13:00;5.00;99.90
5639;DHT22;2841;44.526;11.360;2022-12-08T01:15:27;5.00;99.90
5639;DHT22;2841;44.526;11.360;2022-12-08T01:17:54;5.10;99.90
5639;DHT22;2841;44.526;11.360;2022-12-08T01:20:21;5.10;99.90
5639;DHT22;2841;44.526;11.360;2022-12-08T01:22:48;5.10;99.90
5639;DHT22;2841;44.526;11.360;2022-12-08T01:25:17;5.10;99.90
5639;DHT22;2841;44.526;11.360;2022-12-08T01:27:44;5.10;99.90
5639;DHT22;2841;44.526;11.360;2022-12-08T01:30:12;5.00;99.90
5639;DHT22;2841;44.526;11.360;2022-12-08T01:32:39;5.00;99.90
5639;DHT22;2841;44.526;11.360;2022-12-08T01:35:07;5.00;99.90
5639;DHT22;2841;44.526;11.360;2022-12-08T01:37:35;5.00;99.90
5639;DHT22;2841;44.526;11.360;2022-12-08T01:40:02;4.90;99.90
5639;DHT22;2841;44.526;11.360;2022-12-08T01:42:30;4.90;99.90
5639;DHT22;2841;44.526;11.360;2022-12-08T01:45:00;4.90;99.90
5639;DHT22;2841;44.526;11.360;2022-12-08T01:47:34;4.90;99.90
5639;DHT22;2841;44.526;11.360;2022-12-08T01:50:03;4.90;99.90
5639;DHT22;2841;44.526;11.360;2022-12-08T01:52:36;5.00;99.90
5639;DHT22;2841;44.526;11.360;2022-12-08T01:55:07;5.00;99.90
5639;DHT22;2841;44.526;11.360;2022-12-08T01:57:40;4.90;99.90
5639;DHT22;2841;44.526;11.360;2022-12-08T02:00:09;5.00;99.90
5639;DHT22;2841;44.526;11.360;2022-12-08T02:02:45;5.00;99.90
5639;DHT22;2841;44.526;11.360;2022-12-08T02:05:15;4.90;99.90
5639;DHT22;2841;44.526;11.360;2022-12-08T02:07:45;4.90;99.90
5639;DHT22;2841;44.526;11.360;2022-12-08T02:10:16;4.90;99.90
5639;DHT22;2841;44.526;11.360;2022-12-08T02:12:46;4.90;99.90
5639;DHT22;2841;44.526;11.360;2022-12-08T02:15:14;4.90;99.90
5639;DHT22;2841;44.526;11.360;2022-12-08T02:17:48;5.00;99.90
5639;DHT22;2841;44.526;11.360;2022-12-08T02:20:37;5.00;99.90
5639;DHT22;2841;44.526;11.360;2022-12-08T02:23:15;5.00;99.90
5639;DHT22;2841;44.526;11.360;2022-12-08T02:26:01;5.00;99.90
5639;DHT22;2841;44.526;11.360;2022-12-08T02:28:57;5.10;99.90
5639;DHT22;2841;44.526;11.360;2022-12-08T02:31:36;5.10;99.90
5639;DHT22;2841;44.526;11.360;2022-12-08T02:34:16;5.10;99.90
5639;DHT22;2841;44.526;11.360;2022-12-08T02:36:49;5.10;99.90
5639;DHT22;2841;44.526;11.360;2022-12-08T02:39:28;5.10;99.90
5639;DHT22;2841;44.526;11.360;2022-12-08T02:42:04;5.10;99.90
5639;DHT22;2841;44.526;11.360;2022-12-08T02:44:38;5.10;99.90
5639;DHT22;2841;44.526;11.360;2022-12-08T02:47:08;5.10;99.90
5639;DHT22;2841;44.526;11.360;2022-12-08T02:49:38;5.10;99.90
5639;DHT22;2841;44.526;11.360;2022-12-08T02:52:06;5.10;99.90
5639;DHT22;2841;44.526;11.360;2022-12-08T02:54:35;5.10;99.90
5639;DHT22;2841;44.526;11.360;2022-12-08T02:57:19;5.20;99.90
5639;DHT22;2841;44.526;11.360;2022-12-08T03:00:02;5.20;99.90
5639;DHT22;2841;44.526;11.360;2022-12-08T03:02:43;5.20;99.90
5639;DHT22;2841;44.526;11.360;2022-12-08T03:08:05;5.20;99.90
5639;DHT22;2841;44.526;11.360;2022-12-08T03:10:38;5.20;99.90
5639;DHT22;2841;44.526;11.360;2022-12-08T03:13:10;5.20;99.90
5639;DHT22;2841;44.526;11.360;2022-12-08T03:15:39;5.20;99.90
5639;DHT22;2841;44.526;11.360;2022-12-08T03:18:10;5.20;99.90
5639;DHT22;2841;44.526;11.360;2022-12-08T03:20:39;5.20;99.90
5639;DHT22;2841;44.526;11.360;2022-12-08T03:23:10;5.20;99.90
5639;DHT22;2841;44.526;11.360;2022-12-08T03:25:43;5.20;99.90
5639;DHT22;2841;44.526;11.360;2022-12-08T03:28:12;5.20;99.90
5639;DHT22;2841;44.526;11.360;2022-12-08T03:30:42;5.20;99.90
5639;DHT22;2841;44.526;11.360;2022-12-08T03:33:17;5.20;99.90
5639;DHT22;2841;44.526;11.360;2022-12-08T03:35:46;5.20;99.90
5639;DHT22;2841;44.526;11.360;2022-12-08T03:38:15;5.10;99.90
5639;DHT22;2841;44.526;11.360;2022-12-08T03:40:43;5.10;99.90
5639;DHT22;2841;44.526;11.360;2022-12-08T03:43:30;5.10;99.90
5639;DHT22;2841;44.526;11.360;2022-12-08T03:45:57;5.10;99.90
5639;DHT22;2841;44.526;11.360;2022-12-08T03:48:24;5.10;99.90
5639;DHT22;2841;44.526;11.360;2022-12-08T03:50:53;5.00;99.90
5639;DHT22;2841;44.526;11.360;2022-12-08T03:53:20;5.00;99.90
5639;DHT22;2841;44.526;11.360;2022-12-08T03:55:47;5.00;99.90
5639;DHT22;2841;44.526;11.360;2022-12-08T03:58:14;5.10;99.90
5639;DHT22;2841;44.526;11.360;2022-12-08T04:00:41;5.10;99.90
5639;DHT22;2841;44.526;11.360;2022-12-08T04:03:08;5.00;99.90
5639;DHT22;2841;44.526;11.360;2022-12-08T04:05:35;5.00;99.90
5639;DHT22;2841;44.526;11.360;2022-12-08T04:08:04;5.00;99.90
5639;DHT22;2841;44.526;11.360;2022-12-08T04:10:31;5.00;99.90
5639;DHT22;2841;44.526;11.360;2022-12-08T04:12:58;5.00;99.90
5639;DHT22;2841;44.526;11.360;2022-12-08T04:15:25;5.00;99.90
5639;DHT22;2841;44.526;11.360;2022-12-08T04:17:52;4.90;99.90
5639;DHT22;2841;44.526;11.360;2022-12-08T04:20:19;5.00;99.90
5639;DHT22;2841;44.526;11.360;2022-12-08T04:22:46;5.00;99.90
5639;DHT22;2841;44.526;11.360;2022-12-08T04:25:15;5.00;99.90
5639;DHT22;2841;44.526;11.360;2022-12-08T04:27:42;5.00;99.90
5639;DHT22;2841;44.526;11.360;2022-12-08T04:30:10;4.90;99.90
5639;DHT22;2841;44.526;11.360;2022-12-08T04:32:37;4.90;99.90
5639;DHT22;2841;44.526;11.360;2022-12-08T04:35:04;4.90;99.90
5639;DHT22;2841;44.526;11.360;2022-12-08T04:37:31;4.90;99.90
5639;DHT22;2841;44.526;11.360;2022-12-08T04:39:58;4.90;99.90
5639;DHT22;2841;44.526;11.360;2022-12-08T04:42:27;4.90;99.90
5639;DHT22;2841;44.526;11.360;2022-12-08T04:44:54;4.90;99.90
5639;DHT22;2841;44.526;11.360;2022-12-08T04:47:21;4.90;99.90
5639;DHT22;2841;44.526;11.360;2022-12-08T04:49:48;4.90;99.90
5639;DHT22;2841;44.526;11.360;2022-12-08T04:52:15;5.00;99.90
5639;DHT22;2841;44.526;11.360;2022-12-08T04:54:42;5.00;99.90
5639;DHT22;2841;44.526;11.360;2022-12-08T04:57:09;5.00;99.90
5639;DHT22;2841;44.526;11.360;2022-12-08T04:59:37;5.10;99.90
5639;DHT22;2841;44.526;11.360;2022-12-08T05:02:04;5.00;99.90
5639;DHT22;2841;44.526;11.360;2022-12-08T05:04:31;5.00;99.90
5639;DHT22;2841;44.526;11.360;2022-12-08T05:06:58;5.10;99.90
5639;DHT22;2841;44.526;11.360;2022-12-08T05:09:26;5.00;99.90
5639;DHT22;2841;44.526;11.360;2022-12-08T05:11:53;5.00;99.90
5639;DHT22;2841;44.526;11.360;2022-12-08T05:14:20;5.00;99.90
5639;DHT22;2841;44.526;11.360;2022-12-08T05:16:48;5.10;99.90
5639;DHT22;2841;44.526;11.360;2022-12-08T05:19:16;5.00;99.90
5639;DHT22;2841;44.526;11.360;2022-12-08T05:21:43;5.00;99.90
5639;DHT22;2841;44.526;11.360;2022-12-08T05:24:10;5.00;99.90
5639;DHT22;2841;44.526;11.360;2022-12-08T05:26:37;5.00;99.90
5639;DHT22;2841;44.526;11.360;2022-12-08T05:29:04;5.00;99.90
5639;DHT22;2841;44.526;11.360;2022-12-08T05:31:31;5.00;99.90
5639;DHT22;2841;44.526;11.360;2022-12-08T05:33:59;5.00;99.90
5639;DHT22;2841;44.526;11.360;2022-12-08T05:36:26;4.90;99.90
5639;DHT22;2841;44.526;11.360;2022-12-08T05:38:55;5.00;99.90
5639;DHT22;2841;44.526;11.360;2022-12-08T05:41:23;5.00;99.90
5639;DHT22;2841;44.526;11.360;2022-12-08T05:43:50;5.00;99.90
5639;DHT22;2841;44.526;11.360;2022-12-08T05:46:17;5.00;99.90
5639;DHT22;2841;44.526;11.360;2022-12-08T05:48:44;5.00;99.90
5639;DHT22;2841;44.526;11.360;2022-12-08T05:51:16;5.00;99.90
5639;DHT22;2841;44.526;11.360;2022-12-08T05:53:44;4.90;99.90
5639;DHT22;2841;44.526;11.360;2022-12-08T05:56:11;4.90;99.90
5639;DHT22;2841;44.526;11.360;2022-12-08T05:58:39;4.90;99.90
5639;DHT22;2841;44.526;11.360;2022-12-08T06:01:05;4.90;99.90
5639;DHT22;2841;44.526;11.360;2022-12-08T06:03:33;4.90;99.90
5639;DHT22;2841;44.526;11.360;2022-12-08T06:06:00;4.90;99.90
5639;DHT22;2841;44.526;11.360;2022-12-08T06:08:28;4.90;99.90
5639;DHT22;2841;44.526;11.360;2022-12-08T06:10:56;4.80;99.90
5639;DHT22;2841;44.526;11.360;2022-12-08T06:13:23;4.80;99.90
5639;DHT22;2841;44.526;11.360;2022-12-08T06:15:50;4.80;99.90
5639;DHT22;2841;44.526;11.360;2022-12-08T06:18:17;4.80;99.90
5639;DHT22;2841;44.526;11.360;2022-12-08T06:20:44;4.80;99.90
5639;DHT22;2841;44.526;11.360;2022-12-08T06:23:12;4.80;99.90
5639;DHT22;2841;44.526;11.360;2022-12-08T06:25:40;4.80;99.90
5639;DHT22;2841;44.526;11.360;2022-12-08T06:28:08;4.80;99.90
5639;DHT22;2841;44.526;11.360;2022-12-08T06:30:36;4.80;99.90
5639;DHT22;2841;44.526;11.360;2022-12-08T06:33:03;4.80;99.90
5639;DHT22;2841;44.526;11.360;2022-12-08T06:35:30;4.90;99.90
5639;DHT22;2841;44.526;11.360;2022-12-08T06:37:57;4.90;99.90
5639;DHT22;2841;44.526;11.360;2022-12-08T06:40:24;4.90;99.90
5639;DHT22;2841;44.526;11.360;2022-12-08T06:42:53;4.90;99.90
5639;DHT22;2841;44.526;11.360;2022-12-08T06:45:20;4.90;99.90
5639;DHT22;2841;44.526;11.360;2022-12-08T06:47:47;4.90;99.90
5639;DHT22;2841;44.526;11.360;2022-12-08T06:50:14;4.90;99.90
5639;DHT22;2841;44.526;11.360;2022-12-08T06:52:41;5.00;99.90
5639;DHT22;2841;44.526;11.360;2022-12-08T06:55:08;4.90;99.90
5639;DHT22;2841;44.526;11.360;2022-12-08T06:57:35;4.90;99.90
5639;DHT22;2841;44.526;11.360;2022-12-08T07:00:06;4.90;99.90
5639;DHT22;2841;44.526;11.360;2022-12-08T07:02:33;4.90;99.90
5639;DHT22;2841;44.526;11.360;2022-12-08T07:05:00;4.90;99.90
5639;DHT22;2841;44.526;11.360;2022-12-08T07:07:27;4.90;99.90
5639;DHT22;2841;44.526;11.360;2022-12-08T07:09:54;5.00;99.90
5639;DHT22;2841;44.526;11.360;2022-12-08T07:12:21;5.00;99.90
5639;DHT22;2841;44.526;11.360;2022-12-08T07:14:48;5.00;99.90
5639;DHT22;2841;44.526;11.360;2022-12-08T07:17:16;5.10;99.90
5639;DHT22;2841;44.526;11.360;2022-12-08T07:19:43;5.10;99.90
5639;DHT22;2841;44.526;11.360;2022-12-08T07:22:10;5.10;99.90
5639;DHT22;2841;44.526;11.360;2022-12-08T07:24:37;5.10;99.90
5639;DHT22;2841;44.526;11.360;2022-12-08T07:27:04;5.10;99.90
5639;DHT22;2841;44.526;11.360;2022-12-08T07:29:31;5.20;99.90
5639;DHT22;2841;44.526;11.360;2022-12-08T07:31:58;5.20;99.90
5639;DHT22;2841;44.526;11.360;2022-12-08T07:34:27;5.20;99.90
5639;DHT22;2841;44.526;11.360;2022-12-08T07:36:54;5.20;99.90
5639;DHT22;2841;44.526;11.360;2022-12-08T07:39:20;5.20;99.90
5639;DHT22;2841;44.526;11.360;2022-12-08T07:41:47;5.20;99.90
5639;DHT22;2841;44.526;11.360;2022-12-08T07:44:15;5.20;99.90
5639;DHT22;2841;44.526;11.360;2022-12-08T07:46:42;5.20;99.90
5639;DHT22;2841;44.526;11.360;2022-12-08T07:49:09;5.20;99.90
5639;DHT22;2841;44.526;11.360;2022-12-08T07:51:38;5.20;99.90
5639;DHT22;2841;44.526;11.360;2022-12-08T07:54:05;5.20;99.90
5639;DHT22;2841;44.526;11.360;2022-12-08T07:56:32;5.30;99.90
5639;DHT22;2841;44.526;11.360;2022-12-08T07:59:00;5.30;99.90
5639;DHT22;2841;44.526;11.360;2022-12-08T08:01:29;5.40;99.90
5639;DHT22;2841;44.526;11.360;2022-12-08T08:03:58;5.50;99.90
5639;DHT22;2841;44.526;11.360;2022-12-08T08:06:26;5.60;99.90
5639;DHT22;2841;44.526;11.360;2022-12-08T08:08:55;5.60;99.90
5639;DHT22;2841;44.526;11.360;2022-12-08T08:11:22;5.60;99.90
5639;DHT22;2841;44.526;11.360;2022-12-08T08:13:49;5.60;99.90
5639;DHT22;2841;44.526;11.360;2022-12-08T08:16:18;5.60;99.90
5639;DHT22;2841;44.526;11.360;2022-12-08T08:18:46;5.60;99.90
5639;DHT22;2841;44.526;11.360;2022-12-08T08:21:13;5.70;99.90
5639;DHT22;2841;44.526;11.360;2022-12-08T08:23:40;5.80;99.90
5639;DHT22;2841;44.526;11.360;2022-12-08T08:26:08;5.90;99.90
5639;DHT22;2841;44.526;11.360;2022-12-08T08:28:36;5.90;99.90
5639;DHT22;2841;44.526;11.360;2022-12-08T08:31:03;5.90;99.90
5639;DHT22;2841;44.526;11.360;2022-12-08T08:33:31;5.90;99.90
5639;DHT22;2841;44.526;11.360;2022-12-08T08:35:58;5.90;99.90
5639;DHT22;2841;44.526;11.360;2022-12-08T08:38:25;5.90;99.90
5639;DHT22;2841;44.526;11.360;2022-12-08T08:40:53;5.90;99.90
5639;DHT22;2841;44.526;11.360;2022-12-08T08:43:21;5.90;99.90
5639;DHT22;2841;44.526;11.360;2022-12-08T08:45:57;5.90;99.90
5639;DHT22;2841;44.526;11.360;2022-12-08T08:48:25;5.90;99.90
5639;DHT22;2841;44.526;11.360;2022-12-08T08:50:53;6.00;99.90
5639;DHT22;2841;44.526;11.360;2022-12-08T08:53:20;6.00;99.90
5639;DHT22;2841;44.526;11.360;2022-12-08T08:55:48;6.00;99.90
5639;DHT22;2841;44.526;11.360;2022-12-08T08:58:15;6.10;99.90
5639;DHT22;2841;44.526;11.360;2022-12-08T09:00:43;6.10;99.90
5639;DHT22;2841;44.526;11.360;2022-12-08T09:03:10;6.10;99.90
5639;DHT22;2841;44.526;11.360;2022-12-08T09:05:37;6.20;99.90
5639;DHT22;2841;44.526;11.360;2022-12-08T09:08:06;6.30;99.90
5639;DHT22;2841;44.526;11.360;2022-12-08T09:10:33;6.30;99.90
5639;DHT22;2841;44.526;11.360;2022-12-08T09:13:00;6.30;99.90
5639;DHT22;2841;44.526;11.360;2022-12-08T09:15:27;6.50;99.90
5639;DHT22;2841;44.526;11.360;2022-12-08T09:17:56;6.60;99.90
5639;DHT22;2841;44.526;11.360;2022-12-08T09:20:23;6.90;99.90
5639;DHT22;2841;44.526;11.360;2022-12-08T09:22:52;7.00;99.90
5639;DHT22;2841;44.526;11.360;2022-12-08T09:25:25;7.00;99.90
5639;DHT22;2841;44.526;11.360;2022-12-08T09:27:53;7.00;99.90
5639;DHT22;2841;44.526;11.360;2022-12-08T09:30:20;7.10;99.90
5639;DHT22;2841;44.526;11.360;2022-12-08T09:32:47;7.20;99.90
5639;DHT22;2841;44.526;11.360;2022-12-08T09:35:16;7.20;99.90
5639;DHT22;2841;44.526;11.360;2022-12-08T09:37:43;7.20;99.90
5639;DHT22;2841;44.526;11.360;2022-12-08T09:40:13;7.30;99.90
5639;DHT22;2841;44.526;11.360;2022-12-08T09:42:46;7.50;99.90
5639;DHT22;2841;44.526;11.360;2022-12-08T09:45:17;7.50;99.90
5639;DHT22;2841;44.526;11.360;2022-12-08T09:47:47;7.50;99.90
5639;DHT22;2841;44.526;11.360;2022-12-08T09:50:28;7.40;99.90
5639;DHT22;2841;44.526;11.360;2022-12-08T09:53:00;7.40;99.90
5639;DHT22;2841;44.526;11.360;2022-12-08T09:55:37;7.50;99.90
5639;DHT22;2841;44.526;11.360;2022-12-08T09:58:12;7.60;99.90
5639;DHT22;2841;44.526;11.360;2022-12-08T10:00:41;7.60;99.90
5639;DHT22;2841;44.526;11.360;2022-12-08T10:03:10;7.60;99.90
5639;DHT22;2841;44.526;11.360;2022-12-08T10:05:43;7.60;99.90
5639;DHT22;2841;44.526;11.360;2022-12-08T10:08:18;7.70;99.90
5639;DHT22;2841;44.526;11.360;2022-12-08T10:10:47;7.80;99.90
5639;DHT22;2841;44.526;11.360;2022-12-08T10:13:22;8.00;99.90
5639;DHT22;2841;44.526;11.360;2022-12-08T10:15:57;8.20;99.90
5639;DHT22;2841;44.526;11.360;2022-12-08T10:18:31;8.30;99.90
5639;DHT22;2841;44.526;11.360;2022-12-08T10:21:12;8.20;99.90
5639;DHT22;2841;44.526;11.360;2022-12-08T10:23:42;8.10;99.90
5639;DHT22;2841;44.526;11.360;2022-12-08T10:26:12;8.20;99.90
5639;DHT22;2841;44.526;11.360;2022-12-08T10:28:39;8.30;99.90
5639;DHT22;2841;44.526;11.360;2022-12-08T10:31:14;8.50;99.90
5639;DHT22;2841;44.526;11.360;2022-12-08T10:33:41;8.60;99.90
5639;DHT22;2841;44.526;11.360;2022-12-08T10:36:11;8.60;99.90
5639;DHT22;2841;44.526;11.360;2022-12-08T10:38:39;8.40;99.90
5639;DHT22;2841;44.526;11.360;2022-12-08T10:41:11;8.30;99.90
5639;DHT22;2841;44.526;11.360;2022-12-08T10:43:42;8.30;99.90
5639;DHT22;2841;44.526;11.360;2022-12-08T10:46:12;8.40;99.90
5639;DHT22;2841;44.526;11.360;2022-12-08T10:48:47;8.50;99.90
5639;DHT22;2841;44.526;11.360;2022-12-08T10:51:25;8.40;99.90
5639;DHT22;2841;44.526;11.360;2022-12-08T10:53:53;8.40;99.90
5639;DHT22;2841;44.526;11.360;2022-12-08T10:56:24;8.40;99.90
5639;DHT22;2841;44.526;11.360;2022-12-08T10:59:05;8.40;99.90
5639;DHT22;2841;44.526;11.360;2022-12-08T11:01:36;8.40;99.90
5639;DHT22;2841;44.526;11.360;2022-12-08T11:04:06;8.40;99.90
5639;DHT22;2841;44.526;11.360;2022-12-08T11:06:39;8.40;99.90
5639;DHT22;2841;44.526;11.360;2022-12-08T11:09:36;8.40;99.90
5639;DHT22;2841;44.526;11.360;2022-12-08T11:12:08;8.60;99.90
5639;DHT22;2841;44.526;11.360;2022-12-08T11:14:47;8.70;99.90
5639;DHT22;2841;44.526;11.360;2022-12-08T11:17:16;8.80;99.90
5639;DHT22;2841;44.526;11.360;2022-12-08T11:19:44;8.90;99.90
5639;DHT22;2841;44.526;11.360;2022-12-08T11:22:24;9.00;99.90
5639;DHT22;2841;44.526;11.360;2022-12-08T11:25:08;9.10;99.90
5639;DHT22;2841;44.526;11.360;2022-12-08T11:27:37;9.00;99.90
5639;DHT22;2841;44.526;11.360;2022-12-08T11:30:13;9.00;99.90
5639;DHT22;2841;44.526;11.360;2022-12-08T11:32:42;9.10;99.90
5639;DHT22;2841;44.526;11.360;2022-12-08T11:35:17;9.20;99.90
5639;DHT22;2841;44.526;11.360;2022-12-08T11:37:48;9.10;99.90
5639;DHT22;2841;44.526;11.360;2022-12-08T11:40:19;9.10;99.90
5639;DHT22;2841;44.526;11.360;2022-12-08T11:42:56;9.20;99.90
5639;DHT22;2841;44.526;11.360;2022-12-08T11:45:27;9.40;99.90
5639;DHT22;2841;44.526;11.360;2022-12-08T11:48:03;9.60;99.90
5639;DHT22;2841;44.526;11.360;2022-12-08T11:50:39;9.70;99.90
5639;DHT22;2841;44.526;11.360;2022-12-08T11:53:15;9.80;99.90
5639;DHT22;2841;44.526;11.360;2022-12-08T11:55:48;10.00;99.90
5639;DHT22;2841;44.526;11.360;2022-12-08T11:58:19;9.90;99.90
5639;DHT22;2841;44.526;11.360;2022-12-08T12:00:47;9.90;99.90
5639;DHT22;2841;44.526;11.360;2022-12-08T12:03:20;9.90;99.90
5639;DHT22;2841;44.526;11.360;2022-12-08T12:06:05;10.00;99.90
5639;DHT22;2841;44.526;11.360;2022-12-08T12:08:47;10.10;99.90
5639;DHT22;2841;44.526;11.360;2022-12-08T12:11:24;10.30;99.90
5639;DHT22;2841;44.526;11.360;2022-12-08T12:14:24;10.50;99.90
5639;DHT22;2841;44.526;11.360;2022-12-08T12:17:03;10.60;99.90
5639;DHT22;2841;44.526;11.360;2022-12-08T12:19:34;10.80;99.90
5639;DHT22;2841;44.526;11.360;2022-12-08T12:22:11;10.80;99.90
5639;DHT22;2841;44.526;11.360;2022-12-08T12:24:44;10.70;99.90
5639;DHT22;2841;44.526;11.360;2022-12-08T12:27:22;11.00;99.90
5639;DHT22;2841;44.526;11.360;2022-12-08T12:29:54;11.30;99.90
5639;DHT22;2841;44.526;11.360;2022-12-08T12:32:24;11.90;99.90
5639;DHT22;2841;44.526;11.360;2022-12-08T12:34:54;12.80;99.90
5639;DHT22;2841;44.526;11.360;2022-12-08T12:37:23;13.10;99.90
5639;DHT22;2841;44.526;11.360;2022-12-08T12:39:57;12.90;99.90
5639;DHT22;2841;44.526;11.360;2022-12-08T12:42:36;12.30;99.90
5639;DHT22;2841;44.526;11.360;2022-12-08T12:45:26;11.60;99.90
5639;DHT22;2841;44.526;11.360;2022-12-08T12:48:21;11.20;99.90
5639;DHT22;2841;44.526;11.360;2022-12-08T12:50:50;11.30;99.90
5639;DHT22;2841;44.526;11.360;2022-12-08T12:53:46;11.90;99.90
5639;DHT22;2841;44.526;11.360;2022-12-08T12:59:41;13.50;99.90
5639;DHT22;2841;44.526;11.360;2022-12-08T13:02:19;13.40;99.90
5639;DHT22;2841;44.526;11.360;2022-12-08T13:04:54;13.20;99.90
5639;DHT22;2841;44.526;11.360;2022-12-08T13:07:25;12.90;99.90
5639;DHT22;2841;44.526;11.360;2022-12-08T13:09:59;12.80;99.90
5639;DHT22;2841;44.526;11.360;2022-12-08T13:12:28;12.40;99.90
5639;DHT22;2841;44.526;11.360;2022-12-08T13:15:01;12.10;99.90
5639;DHT22;2841;44.526;11.360;2022-12-08T13:17:30;12.10;99.90
5639;DHT22;2841;44.526;11.360;2022-12-08T13:20:00;11.90;99.90
5639;DHT22;2841;44.526;11.360;2022-12-08T13:22:48;11.70;99.90
5639;DHT22;2841;44.526;11.360;2022-12-08T13:25:47;11.30;99.90
5639;DHT22;2841;44.526;11.360;2022-12-08T13:28:21;10.90;99.90
5639;DHT22;2841;44.526;11.360;2022-12-08T13:30:51;10.70;99.90
5639;DHT22;2841;44.526;11.360;2022-12-08T13:33:24;10.50;99.90
5639;DHT22;2841;44.526;11.360;2022-12-08T13:36:20;10.40;99.90
5639;DHT22;2841;44.526;11.360;2022-12-08T13:38:53;10.30;99.90
5639;DHT22;2841;44.526;11.360;2022-12-08T13:41:23;10.20;99.90
5639;DHT22;2841;44.526;11.360;2022-12-08T13:43:58;10.10;99.90
5639;DHT22;2841;44.526;11.360;2022-12-08T13:46:36;10.10;99.90
5639;DHT22;2841;44.526;11.360;2022-12-08T13:49:06;10.10;99.90
5639;DHT22;2841;44.526;11.360;2022-12-08T13:51:41;10.00;99.90
5639;DHT22;2841;44.526;11.360;2022-12-08T13:54:15;9.90;99.90
5639;DHT22;2841;44.526;11.360;2022-12-08T13:56:46;9.80;99.90
5639;DHT22;2841;44.526;11.360;2022-12-08T13:59:25;9.70;99.90
5639;DHT22;2841;44.526;11.360;2022-12-08T14:01:58;9.60;99.90
5639;DHT22;2841;44.526;11.360;2022-12-08T14:04:27;9.60;99.90
5639;DHT22;2841;44.526;11.360;2022-12-08T14:06:57;9.60;99.90
5639;DHT22;2841;44.526;11.360;2022-12-08T14:09:26;9.60;99.90
5639;DHT22;2841;44.526;11.360;2022-12-08T14:11:57;9.60;99.90
5639;DHT22;2841;44.526;11.360;2022-12-08T14:14:28;9.60;99.90
5639;DHT22;2841;44.526;11.360;2022-12-08T14:16:59;9.80;99.90
5639;DHT22;2841;44.526;11.360;2022-12-08T14:19:28;9.90;99.90
5639;DHT22;2841;44.526;11.360;2022-12-08T14:21:57;9.90;99.90
5639;DHT22;2841;44.526;11.360;2022-12-08T14:24:26;9.90;99.90
5639;DHT22;2841;44.526;11.360;2022-12-08T14:26:55;9.80;99.90
5639;DHT22;2841;44.526;11.360;2022-12-08T14:29:36;9.70;99.90
5639;DHT22;2841;44.526;11.360;2022-12-08T14:32:14;9.60;99.90
5639;DHT22;2841;44.526;11.360;2022-12-08T14:34:44;9.50;99.90
5639;DHT22;2841;44.526;11.360;2022-12-08T14:37:12;9.50;99.90
5639;DHT22;2841;44.526;11.360;2022-12-08T14:39:39;9.40;99.90
5639;DHT22;2841;44.526;11.360;2022-12-08T14:42:11;9.30;99.90
5639;DHT22;2841;44.526;11.360;2022-12-08T14:44:40;9.20;99.90
5639;DHT22;2841;44.526;11.360;2022-12-08T14:47:09;9.00;99.90
5639;DHT22;2841;44.526;11.360;2022-12-08T14:49:37;8.80;99.90
5639;DHT22;2841;44.526;11.360;2022-12-08T14:52:08;8.70;99.90
5639;DHT22;2841;44.526;11.360;2022-12-08T14:54:36;8.60;99.90
5639;DHT22;2841;44.526;11.360;2022-12-08T14:57:05;8.50;99.90
5639;DHT22;2841;44.526;11.360;2022-12-08T14:59:34;8.40;99.90
5639;DHT22;2841;44.526;11.360;2022-12-08T15:02:12;8.40;99.90
5639;DHT22;2841;44.526;11.360;2022-12-08T15:04:53;8.30;99.90
5639;DHT22;2841;44.526;11.360;2022-12-08T15:07:24;8.30;99.90
5639;DHT22;2841;44.526;11.360;2022-12-08T15:10:17;8.30;99.90
5639;DHT22;2841;44.526;11.360;2022-12-08T15:12:57;8.20;99.90
5639;DHT22;2841;44.526;11.360;2022-12-08T15:15:24;8.20;99.90
5639;DHT22;2841;44.526;11.360;2022-12-08T15:18:01;8.10;99.90
5639;DHT22;2841;44.526;11.360;2022-12-08T15:20:38;8.10;99.90
5639;DHT22;2841;44.526;11.360;2022-12-08T15:23:18;8.10;99.90
5639;DHT22;2841;44.526;11.360;2022-12-08T15:25:46;8.00;99.90
5639;DHT22;2841;44.526;11.360;2022-12-08T15:28:15;8.00;99.90
5639;DHT22;2841;44.526;11.360;2022-12-08T15:30:42;8.00;99.90
5639;DHT22;2841;44.526;11.360;2022-12-08T15:33:11;7.90;99.90
5639;DHT22;2841;44.526;11.360;2022-12-08T15:35:38;7.90;99.90
5639;DHT22;2841;44.526;11.360;2022-12-08T15:38:06;7.90;99.90
5639;DHT22;2841;44.526;11.360;2022-12-08T15:40:36;7.80;99.90
5639;DHT22;2841;44.526;11.360;2022-12-08T15:43:03;7.70;99.90
5639;DHT22;2841;44.526;11.360;2022-12-08T15:45:30;7.70;99.90
5639;DHT22;2841;44.526;11.360;2022-12-08T15:47:58;7.60;99.90
5639;DHT22;2841;44.526;11.360;2022-12-08T15:50:26;7.60;99.90
5639;DHT22;2841;44.526;11.360;2022-12-08T15:52:53;7.60;99.90
5639;DHT22;2841;44.526;11.360;2022-12-08T15:55:20;7.50;99.90
5639;DHT22;2841;44.526;11.360;2022-12-08T15:57:50;7.50;99.90
5639;DHT22;2841;44.526;11.360;2022-12-08T16:00:25;7.50;99.90
5639;DHT22;2841;44.526;11.360;2022-12-08T16:02:53;7.40;99.90
5639;DHT22;2841;44.526;11.360;2022-12-08T16:05:20;7.40;99.90
5639;DHT22;2841;44.526;11.360;2022-12-08T16:07:49;7.40;99.90
5639;DHT22;2841;44.526;11.360;2022-12-08T16:10:18;7.40;99.90
5639;DHT22;2841;44.526;11.360;2022-12-08T16:12:46;7.50;99.90
5639;DHT22;2841;44.526;11.360;2022-12-08T16:15:33;7.50;99.90
5639;DHT22;2841;44.526;11.360;2022-12-08T16:18:01;7.50;99.90
5639;DHT22;2841;44.526;11.360;2022-12-08T16:20:28;7.50;99.90
5639;DHT22;2841;44.526;11.360;2022-12-08T16:22:57;7.60;99.90
5639;DHT22;2841;44.526;11.360;2022-12-08T16:25:25;7.60;99.90
5639;DHT22;2841;44.526;11.360;2022-12-08T16:27:54;7.60;99.90